Time;durP1;ratioP1;P1;durP2;ratioP2;P2;SDS_P1;SDS_P2;PMS_P1;PMS_P2;Temp;Humidity;BMP_temperature;BMP_pressure;BME280_temperature;BME280_humidity;BME280_pressure;Samples;Min_cycle;Max_cycle;Signal;HPM_P1;HPM_P2
2023/03/30 00:02:21;;;;;;;10.40;3.57;;;13.40;99.90;;;;;;6243706;23;20177;-76
2023/03/30 00:04:48;;;;;;;9.37;3.50;;;13.40;99.90;;;;;;6246463;23;20170;-76
2023/03/30 00:07:15;;;;;;;13.40;4.10;;;13.30;99.90;;;;;;6246170;22;20189;-80
2023/03/30 00:09:42;;;;;;;13.80;3.73;;;13.30;99.90;;;;;;6245469;23;20264;-77
2023/03/30 00:12:12;;;;;;;13.60;3.80;;;13.20;99.90;;;;;;6268347;22;20208;-78
2023/03/30 00:14:41;;;;;;;10.50;3.30;;;13.20;99.90;;;;;;6276886;22;20835;-76
2023/03/30 00:17:09;;;;;;;8.93;3.90;;;13.20;99.90;;;;;;6275924;22;20538;-78
2023/03/30 00:19:36;;;;;;;13.73;4.70;;;13.10;99.90;;;;;;6307225;22;20218;-79
2023/03/30 00:22:03;;;;;;;10.00;4.07;;;13.10;99.90;;;;;;6307934;22;20200;-79
2023/03/30 00:24:30;;;;;;;10.53;4.57;;;13.00;99.90;;;;;;6306746;22;20164;-78
2023/03/30 00:26:57;;;;;;;14.73;5.57;;;12.90;99.90;;;;;;6308199;22;20255;-78
2023/03/30 00:29:26;;;;;;;14.67;5.67;;;12.80;99.90;;;;;;6307977;22;20164;-76
2023/03/30 00:31:53;;;;;;;13.57;5.57;;;12.80;99.90;;;;;;6307021;22;20331;-77
2023/03/30 00:34:20;;;;;;;15.27;5.37;;;12.70;99.90;;;;;;6307685;22;20565;-81
2023/03/30 00:36:48;;;;;;;12.60;5.83;;;12.70;99.90;;;;;;6308068;22;20168;-80
2023/03/30 00:39:17;;;;;;;13.90;5.73;;;12.60;99.90;;;;;;6306993;22;20172;-79
2023/03/30 00:41:45;;;;;;;12.30;5.70;;;12.50;99.90;;;;;;6307187;22;20658;-78
2023/03/30 00:44:46;;;;;;;16.97;6.10;;;12.50;99.90;;;;;;6307474;22;20168;-78
2023/03/30 00:47:15;;;;;;;12.37;6.30;;;12.50;99.90;;;;;;6307284;22;20557;-80
2023/03/30 00:49:43;;;;;;;14.63;5.57;;;12.50;99.90;;;;;;6307633;22;20166;-79
2023/03/30 00:52:11;;;;;;;12.93;7.03;;;12.50;99.90;;;;;;6306285;22;20171;-79
2023/03/30 00:54:39;;;;;;;15.53;7.13;;;12.50;99.90;;;;;;6307342;22;20243;-78
2023/03/30 00:57:07;;;;;;;14.50;6.30;;;12.60;99.90;;;;;;6307681;22;20198;-79
2023/03/30 00:59:34;;;;;;;15.60;5.90;;;12.50;99.90;;;;;;6306298;22;20435;-79
2023/03/30 01:02:01;;;;;;;11.93;5.37;;;12.50;99.90;;;;;;6306677;22;20223;-78
2023/03/30 01:04:30;;;;;;;12.17;5.10;;;12.50;99.90;;;;;;6307345;22;20251;-77
2023/03/30 01:06:57;;;;;;;10.37;4.10;;;12.50;99.90;;;;;;6290924;22;20268;-79
2023/03/30 01:09:26;;;;;;;12.27;4.30;;;12.50;99.90;;;;;;6276256;22;20176;-78
2023/03/30 01:11:53;;;;;;;11.27;5.10;;;12.50;99.90;;;;;;6276100;22;20205;-77
2023/03/30 01:14:20;;;;;;;10.53;3.87;;;12.50;99.90;;;;;;6275719;22;20245;-77
2023/03/30 01:16:56;;;;;;;7.37;3.53;;;12.50;99.90;;;;;;6276238;22;20172;-78
2023/03/30 01:19:53;;;;;;;11.37;3.73;;;12.50;99.90;;;;;;6275786;22;20538;-76
2023/03/30 01:22:43;;;;;;;10.43;4.37;;;12.50;99.90;;;;;;6276888;22;20185;-78
2023/03/30 01:25:44;;;;;;;14.07;5.13;;;12.50;99.90;;;;;;6271251;22;20255;-77
2023/03/30 01:28:28;;;;;;;11.43;4.20;;;12.50;99.90;;;;;;6255397;22;20448;-79
2023/03/30 01:31:29;;;;;;;10.87;3.90;;;12.40;99.90;;;;;;6276105;22;20157;-79
2023/03/30 01:34:39;;;;;;;10.40;3.33;;;12.40;99.90;;;;;;6269675;22;20175;-78
2023/03/30 01:37:31;;;;;;;10.90;3.67;;;12.40;99.90;;;;;;6275855;22;20244;-78
2023/03/30 01:40:08;;;;;;;10.27;3.90;;;12.40;99.90;;;;;;6275805;22;20534;-80
2023/03/30 01:42:40;;;;;;;15.13;3.93;;;12.30;99.90;;;;;;6274953;22;20185;-76
2023/03/30 01:45:15;;;;;;;13.90;4.23;;;12.30;99.90;;;;;;6275825;22;20157;-78
2023/03/30 01:47:52;;;;;;;9.00;3.40;;;12.20;99.90;;;;;;6275126;22;20174;-77
2023/03/30 01:50:25;;;;;;;12.30;3.97;;;12.20;99.90;;;;;;6276022;22;20239;-77
2023/03/30 01:52:56;;;;;;;16.10;4.40;;;12.10;99.90;;;;;;6275964;22;20165;-76
2023/03/30 01:55:32;;;;;;;14.47;3.67;;;12.10;99.90;;;;;;6275067;22;20562;-78
2023/03/30 01:58:03;;;;;;;14.50;4.33;;;12.10;99.90;;;;;;6276194;22;20188;-78
2023/03/30 02:00:30;;;;;;;10.63;3.40;;;12.10;99.90;;;;;;6276013;22;20196;-78
2023/03/30 02:03:01;;;;;;;13.13;3.50;;;12.10;99.90;;;;;;6275365;22;20259;-77
2023/03/30 02:05:30;;;;;;;14.73;4.43;;;12.10;99.90;;;;;;6276297;22;20275;-76
2023/03/30 02:08:01;;;;;;;16.70;4.50;;;12.10;99.90;;;;;;6275774;22;20267;-78
2023/03/30 02:10:32;;;;;;;12.43;3.50;;;12.10;99.90;;;;;;6274427;22;20558;-78
2023/03/30 02:13:00;;;;;;;12.03;4.20;;;12.10;99.90;;;;;;6275886;22;20184;-76
2023/03/30 02:15:34;;;;;;;19.67;4.60;;;12.00;99.90;;;;;;6275643;22;20252;-77
2023/03/30 02:18:01;;;;;;;9.50;3.77;;;12.00;99.90;;;;;;6275288;22;20163;-78
2023/03/30 02:20:29;;;;;;;15.80;4.10;;;12.10;99.90;;;;;;6275477;22;20226;-78
2023/03/30 02:22:57;;;;;;;17.73;5.10;;;12.10;99.90;;;;;;6275038;22;20223;-79
2023/03/30 02:25:24;;;;;;;14.17;4.50;;;12.00;99.90;;;;;;6275523;22;20172;-78
2023/03/30 02:27:52;;;;;;;12.80;3.43;;;12.00;99.90;;;;;;6275943;22;20207;-79
2023/03/30 02:30:19;;;;;;;13.40;4.17;;;12.00;99.90;;;;;;6275075;22;20173;-78
2023/03/30 02:32:51;;;;;;;12.63;4.50;;;12.00;99.90;;;;;;6275929;22;20200;-78
2023/03/30 02:35:29;;;;;;;16.20;3.83;;;11.90;99.90;;;;;;6275972;22;20243;-80
2023/03/30 02:38:20;;;;;;;14.87;3.93;;;11.90;99.90;;;;;;6275394;22;20165;-77
2023/03/30 02:40:57;;;;;;;16.27;4.80;;;11.80;99.90;;;;;;6275277;22;20180;-78
2023/03/30 02:43:37;;;;;;;15.63;4.30;;;11.80;99.90;;;;;;6275460;22;20164;-78
2023/03/30 02:46:25;;;;;;;15.40;3.17;;;11.80;99.90;;;;;;6275474;22;20164;-77
2023/03/30 02:49:02;;;;;;;16.00;3.87;;;11.80;99.90;;;;;;6275232;22;20256;-81
2023/03/30 02:51:40;;;;;;;19.97;3.83;;;11.90;99.90;;;;;;6275390;22;20239;-78
2023/03/30 02:54:18;;;;;;;15.90;3.93;;;11.90;99.90;;;;;;6275144;22;20188;-79
2023/03/30 02:56:47;;;;;;;16.87;4.13;;;11.90;99.90;;;;;;6275614;22;20164;-77
2023/03/30 02:59:20;;;;;;;17.23;4.30;;;12.00;99.90;;;;;;6274983;22;20256;-77
2023/03/30 03:01:53;;;;;;;15.77;4.17;;;12.10;99.90;;;;;;6275449;22;20776;-80
2023/03/30 03:04:23;;;;;;;16.37;3.00;;;12.10;99.90;;;;;;6275362;22;20176;-78
2023/03/30 03:06:51;;;;;;;12.47;3.27;;;12.20;99.90;;;;;;6274992;22;20192;-78
2023/03/30 03:09:19;;;;;;;19.23;4.50;;;12.20;99.90;;;;;;6276160;22;20176;-78
2023/03/30 03:11:46;;;;;;;15.40;3.87;;;12.20;99.90;;;;;;6273650;22;20759;-79
2023/03/30 03:14:13;;;;;;;14.23;3.90;;;12.20;99.90;;;;;;6274884;22;20739;-81
2023/03/30 03:16:41;;;;;;;11.93;3.63;;;12.20;99.90;;;;;;6274912;22;20169;-80
2023/03/30 03:19:08;;;;;;;17.10;4.03;;;12.20;99.90;;;;;;6274961;22;20218;-77
2023/03/30 03:21:35;;;;;;;12.10;4.17;;;12.20;99.90;;;;;;6275306;22;20482;-81
2023/03/30 03:24:02;;;;;;;19.27;4.03;;;12.20;99.90;;;;;;6275498;22;20285;-79
2023/03/30 03:26:30;;;;;;;18.70;4.10;;;12.20;99.90;;;;;;6274555;22;20201;-77
2023/03/30 03:28:56;;;;;;;19.57;3.70;;;12.10;99.90;;;;;;6275516;22;20211;-77
2023/03/30 03:31:25;;;;;;;13.37;4.00;;;12.10;99.90;;;;;;6275298;22;20641;-79
2023/03/30 03:33:54;;;;;;;12.40;3.63;;;12.00;99.90;;;;;;6273741;22;20172;-78
2023/03/30 03:36:22;;;;;;;13.20;3.50;;;12.00;99.90;;;;;;6274560;22;20215;-80
2023/03/30 03:38:49;;;;;;;17.87;4.47;;;12.00;99.90;;;;;;6274635;22;20562;-79
2023/03/30 03:41:16;;;;;;;13.80;3.27;;;12.10;99.90;;;;;;6274107;22;20188;-80
2023/03/30 03:43:43;;;;;;;10.90;3.20;;;12.00;99.90;;;;;;6274228;22;20168;-79
2023/03/30 03:46:10;;;;;;;14.47;3.70;;;12.00;99.90;;;;;;6274571;22;20251;-78
2023/03/30 03:48:38;;;;;;;17.00;4.40;;;12.00;99.90;;;;;;6274431;22;20264;-77
2023/03/30 03:51:08;;;;;;;15.73;3.40;;;12.00;99.90;;;;;;6275281;22;20164;-80
2023/03/30 03:53:35;;;;;;;14.40;3.13;;;12.00;99.90;;;;;;6274927;22;20175;-78
2023/03/30 03:56:02;;;;;;;13.50;4.40;;;12.00;99.90;;;;;;6274716;22;20172;-81
2023/03/30 03:58:29;;;;;;;13.83;3.40;;;12.00;99.90;;;;;;6274354;22;20176;-81
2023/03/30 04:00:58;;;;;;;15.87;3.43;;;12.00;99.90;;;;;;6273955;22;20204;-78
2023/03/30 04:03:25;;;;;;;13.93;3.80;;;12.00;99.90;;;;;;6275105;22;20227;-79
2023/03/30 04:05:52;;;;;;;12.63;3.37;;;12.00;99.90;;;;;;6274996;22;20443;-79
2023/03/30 04:08:21;;;;;;;12.40;3.70;;;12.00;99.90;;;;;;6273929;22;20173;-79
2023/03/30 04:10:48;;;;;;;16.40;3.37;;;12.00;99.90;;;;;;6274405;22;20219;-80
2023/03/30 04:13:15;;;;;;;11.00;3.47;;;12.00;99.90;;;;;;6275213;22;20161;-77
2023/03/30 04:15:42;;;;;;;13.07;3.00;;;12.00;99.90;;;;;;6274147;22;20316;-78
2023/03/30 04:18:08;;;;;;;14.53;4.33;;;12.00;99.90;;;;;;6274571;22;20193;-79
2023/03/30 04:20:35;;;;;;;16.33;4.00;;;11.90;99.90;;;;;;6275389;22;20243;-77
2023/03/30 04:23:02;;;;;;;18.33;4.10;;;11.90;99.90;;;;;;6274067;22;20291;-78
2023/03/30 04:25:30;;;;;;;14.77;3.30;;;11.90;99.90;;;;;;6275187;22;20256;-77
2023/03/30 04:27:57;;;;;;;15.37;3.27;;;11.80;99.90;;;;;;6275073;22;20248;-80
2023/03/30 04:30:25;;;;;;;18.20;4.13;;;11.80;99.90;;;;;;6273589;22;20235;-79
2023/03/30 04:33:01;;;;;;;16.90;4.57;;;11.70;99.90;;;;;;6275150;22;20719;-78
2023/03/30 04:35:30;;;;;;;21.97;4.30;;;11.70;99.90;;;;;;6275124;22;20168;-78
2023/03/30 04:37:58;;;;;;;16.43;3.80;;;11.60;99.90;;;;;;6274283;22;20179;-81
2023/03/30 04:40:26;;;;;;;19.97;4.57;;;11.50;99.90;;;;;;6275207;22;20226;-79
2023/03/30 04:42:54;;;;;;;22.23;4.43;;;11.60;99.90;;;;;;6275174;22;20615;-80
2023/03/30 04:45:21;;;;;;;24.03;5.93;;;11.50;99.90;;;;;;6274099;22;20180;-78
2023/03/30 04:47:48;;;;;;;17.70;4.40;;;11.50;99.90;;;;;;6274685;22;20176;-78
2023/03/30 04:50:15;;;;;;;25.37;4.93;;;11.40;99.90;;;;;;6276167;22;20255;-82
2023/03/30 04:52:42;;;;;;;17.37;4.80;;;11.40;99.90;;;;;;6277309;22;20248;-79
2023/03/30 04:55:10;;;;;;;29.10;5.70;;;11.40;99.90;;;;;;6276828;22;20203;-81
2023/03/30 04:57:37;;;;;;;25.00;5.40;;;11.30;99.90;;;;;;6276022;22;20211;-77
2023/03/30 05:00:08;;;;;;;23.27;5.67;;;11.30;99.90;;;;;;6277264;22;20180;-79
2023/03/30 05:02:35;;;;;;;26.60;5.27;;;11.30;99.90;;;;;;6276584;22;20192;-79
2023/03/30 05:05:02;;;;;;;28.60;5.67;;;11.30;99.90;;;;;;6275410;22;20214;-80
2023/03/30 05:07:29;;;;;;;31.13;6.47;;;11.20;99.90;;;;;;6276101;22;20256;-77
2023/03/30 05:09:55;;;;;;;27.70;5.40;;;11.20;99.90;;;;;;6276674;22;20236;-78
2023/03/30 05:12:22;;;;;;;32.77;5.60;;;11.20;99.90;;;;;;6275149;22;20197;-81
2023/03/30 05:14:49;;;;;;;28.23;6.20;;;11.20;99.90;;;;;;6277101;22;20251;-80
2023/03/30 05:17:18;;;;;;;28.80;7.30;;;11.20;99.90;;;;;;6277021;22;20173;-80
2023/03/30 05:19:45;;;;;;;31.00;6.63;;;11.20;99.90;;;;;;6276293;22;20177;-80
2023/03/30 05:22:12;;;;;;;35.77;5.93;;;11.20;99.90;;;;;;6276018;22;20195;-80
2023/03/30 05:24:39;;;;;;;25.40;5.93;;;11.10;99.90;;;;;;6276728;22;20192;-80
2023/03/30 05:27:06;;;;;;;24.70;5.53;;;11.20;99.90;;;;;;6275229;22;20165;-79
2023/03/30 05:29:33;;;;;;;21.77;6.70;;;11.20;99.90;;;;;;6276528;22;20172;-80
2023/03/30 05:32:00;;;;;;;32.47;6.00;;;11.20;99.90;;;;;;6276270;22;20173;-79
2023/03/30 05:34:28;;;;;;;32.60;6.50;;;11.10;99.90;;;;;;6275331;22;20176;-79
2023/03/30 05:36:55;;;;;;;36.13;6.67;;;11.20;99.90;;;;;;6275547;22;20172;-80
2023/03/30 05:39:23;;;;;;;28.43;6.53;;;11.10;99.90;;;;;;6274272;22;20623;-79
2023/03/30 05:41:50;;;;;;;26.10;5.83;;;11.10;99.90;;;;;;6276149;22;20247;-78
2023/03/30 05:44:17;;;;;;;35.07;7.87;;;11.00;99.90;;;;;;6275401;22;20247;-77
2023/03/30 05:46:44;;;;;;;35.13;7.17;;;11.10;99.90;;;;;;6275439;22;20199;-78
2023/03/30 05:49:11;;;;;;;33.20;7.33;;;11.10;99.90;;;;;;6276344;22;20211;-77
2023/03/30 05:51:39;;;;;;;36.17;7.00;;;11.10;99.90;;;;;;6275479;22;20550;-78
2023/03/30 05:54:06;;;;;;;31.67;6.40;;;11.10;99.90;;;;;;6274991;22;20196;-79
2023/03/30 05:56:33;;;;;;;31.00;6.87;;;11.10;99.90;;;;;;6276039;22;20173;-78
2023/03/30 05:59:00;;;;;;;42.00;7.80;;;11.10;99.90;;;;;;6275944;22;20486;-77
2023/03/30 06:01:27;;;;;;;28.07;6.80;;;11.10;99.90;;;;;;6274521;22;20772;-79
2023/03/30 06:03:54;;;;;;;40.07;7.17;;;11.10;99.90;;;;;;6276235;22;20224;-75
2023/03/30 06:06:21;;;;;;;28.07;6.33;;;11.10;99.90;;;;;;6275677;22;20232;-80
2023/03/30 06:08:50;;;;;;;37.73;8.17;;;11.10;99.90;;;;;;6274658;22;20169;-78
2023/03/30 06:11:16;;;;;;;36.70;7.43;;;11.10;99.90;;;;;;6275397;22;20196;-75
2023/03/30 06:13:43;;;;;;;33.80;7.30;;;11.10;99.90;;;;;;6276093;22;20172;-79
2023/03/30 06:16:10;;;;;;;37.40;7.60;;;11.10;99.90;;;;;;6274828;22;20203;-80
2023/03/30 06:18:37;;;;;;;29.10;5.90;;;11.10;99.90;;;;;;6275340;22;20252;-79
2023/03/30 06:21:06;;;;;;;40.40;8.27;;;11.10;99.90;;;;;;6275492;22;20173;-79
2023/03/30 06:23:33;;;;;;;29.87;7.60;;;11.20;99.90;;;;;;6274689;22;20197;-79
2023/03/30 06:26:02;;;;;;;36.80;6.93;;;11.10;99.90;;;;;;6275702;22;20492;-79
2023/03/30 06:28:29;;;;;;;32.67;8.20;;;11.10;99.90;;;;;;6275994;22;20252;-79
2023/03/30 06:30:57;;;;;;;29.60;7.80;;;11.10;99.90;;;;;;6274377;22;20169;-81
2023/03/30 06:33:24;;;;;;;40.13;7.03;;;11.20;99.90;;;;;;6275636;22;20199;-79
2023/03/30 06:35:53;;;;;;;34.13;8.10;;;11.20;99.90;;;;;;6274437;22;20169;-78
2023/03/30 06:38:21;;;;;;;28.53;8.00;;;11.30;99.90;;;;;;6275205;22;20597;-77
2023/03/30 06:40:49;;;;;;;36.90;8.30;;;11.30;99.90;;;;;;6275502;22;20169;-80
2023/03/30 06:43:20;;;;;;;35.90;7.80;;;11.30;99.90;;;;;;6273938;22;20195;-78
2023/03/30 06:45:50;;;;;;;37.30;7.53;;;11.30;99.90;;;;;;6275382;22;20203;-78
2023/03/30 06:48:19;;;;;;;35.70;8.27;;;11.40;99.90;;;;;;6275280;22;20804;-78
2023/03/30 06:50:46;;;;;;;43.30;8.53;;;11.40;99.90;;;;;;6274179;22;20165;-79
2023/03/30 06:53:13;;;;;;;39.90;7.90;;;11.40;99.90;;;;;;6275243;22;20218;-81
2023/03/30 06:55:40;;;;;;;38.87;9.00;;;11.50;99.90;;;;;;6275182;22;20176;-82
2023/03/30 06:58:07;;;;;;;41.03;8.30;;;11.50;99.90;;;;;;6274865;22;20255;-80
2023/03/30 07:00:36;;;;;;;42.20;9.20;;;11.50;99.90;;;;;;6274361;22;20619;-80
2023/03/30 07:03:05;;;;;;;40.47;8.33;;;11.50;99.90;;;;;;6272359;22;20193;-80
2023/03/30 07:05:32;;;;;;;35.23;6.93;;;11.50;99.90;;;;;;6273666;22;20168;-78
2023/03/30 07:07:59;;;;;;;35.43;7.30;;;11.50;99.90;;;;;;6274106;22;20620;-79
2023/03/30 07:10:26;;;;;;;43.40;7.90;;;11.60;99.90;;;;;;6274261;22;20456;-79
2023/03/30 07:12:53;;;;;;;36.13;8.10;;;11.50;99.90;;;;;;6274067;22;20200;-77
2023/03/30 07:15:20;;;;;;;41.20;10.10;;;11.50;99.90;;;;;;6274244;22;20439;-79
2023/03/30 07:17:49;;;;;;;36.87;9.53;;;11.50;99.90;;;;;;6274470;22;20169;-78
2023/03/30 07:20:17;;;;;;;45.73;8.53;;;11.50;99.90;;;;;;6275242;22;20208;-80
2023/03/30 07:22:44;;;;;;;40.57;7.80;;;11.50;99.90;;;;;;6273930;22;20688;-79
2023/03/30 07:25:12;;;;;;;39.47;7.57;;;11.50;99.90;;;;;;6274083;22;20161;-79
2023/03/30 07:27:39;;;;;;;35.93;7.70;;;11.50;99.90;;;;;;6274274;22;20164;-80
2023/03/30 07:30:09;;;;;;;39.77;8.70;;;11.50;99.90;;;;;;6274288;22;20653;-78
2023/03/30 07:32:36;;;;;;;33.97;8.27;;;11.50;99.90;;;;;;6273410;22;20728;-80
2023/03/30 07:35:05;;;;;;;46.53;8.57;;;11.50;99.90;;;;;;6274217;22;20179;-80
2023/03/30 07:37:32;;;;;;;34.33;8.67;;;11.50;99.90;;;;;;6274381;22;20172;-80
2023/03/30 07:39:59;;;;;;;42.00;8.50;;;11.60;99.90;;;;;;6274228;22;20172;-78
2023/03/30 07:42:26;;;;;;;42.90;8.33;;;11.60;99.90;;;;;;6274077;22;20183;-79
2023/03/30 07:44:53;;;;;;;46.30;9.97;;;11.60;99.90;;;;;;6273474;22;20169;-77
2023/03/30 07:47:20;;;;;;;46.37;10.93;;;11.70;99.90;;;;;;6274180;22;20200;-79
2023/03/30 07:49:47;;;;;;;46.17;9.53;;;11.70;99.90;;;;;;6274673;22;20196;-79
2023/03/30 07:52:15;;;;;;;42.37;9.30;;;11.80;99.90;;;;;;6274477;22;20172;-79
2023/03/30 07:54:43;;;;;;;38.93;8.47;;;11.80;99.90;;;;;;6274464;22;20172;-81
2023/03/30 07:57:10;;;;;;;38.13;8.80;;;11.80;99.90;;;;;;6275012;22;20259;-79
2023/03/30 07:59:37;;;;;;;44.40;9.43;;;11.90;99.90;;;;;;6275238;22;20197;-80
2023/03/30 08:02:04;;;;;;;49.43;10.17;;;11.90;99.90;;;;;;6273741;22;20176;-81
2023/03/30 08:04:33;;;;;;;44.43;7.87;;;11.90;99.90;;;;;;6274878;22;20257;-79
2023/03/30 08:07:02;;;;;;;43.17;9.10;;;12.00;99.90;;;;;;6274652;22;20188;-79
2023/03/30 08:09:31;;;;;;;41.07;9.20;;;12.00;99.90;;;;;;6274797;22;20538;-79
2023/03/30 08:11:58;;;;;;;47.37;9.97;;;12.10;99.90;;;;;;6274190;22;20675;-80
2023/03/30 08:14:26;;;;;;;39.00;8.97;;;12.10;99.90;;;;;;6273583;22;20739;-79
2023/03/30 08:16:53;;;;;;;45.90;10.70;;;12.20;99.90;;;;;;6274866;22;20169;-79
2023/03/30 08:19:20;;;;;;;43.30;9.87;;;12.20;99.90;;;;;;6274928;22;20215;-78
2023/03/30 08:21:47;;;;;;;43.73;10.03;;;12.30;99.90;;;;;;6274652;22;20164;-80
2023/03/30 08:24:14;;;;;;;45.90;11.27;;;12.40;99.90;;;;;;6276582;22;20275;-79
2023/03/30 08:26:42;;;;;;;46.80;9.60;;;12.50;99.90;;;;;;6276848;22;20238;-79
2023/03/30 08:29:10;;;;;;;46.83;9.23;;;12.60;99.90;;;;;;6275817;22;20195;-80
2023/03/30 08:31:37;;;;;;;39.90;10.53;;;12.80;99.90;;;;;;6276502;22;20169;-80
2023/03/30 08:34:05;;;;;;;50.37;10.57;;;12.90;99.90;;;;;;6276583;22;20247;-79
2023/03/30 08:36:32;;;;;;;43.70;10.70;;;13.00;99.90;;;;;;6273937;22;20200;-82
2023/03/30 08:38:59;;;;;;;41.77;10.30;;;13.10;99.90;;;;;;6277078;22;20660;-80
2023/03/30 08:41:53;;;;;;;51.50;10.47;;;13.20;99.90;;;;;;6275856;22;20420;-80
2023/03/30 08:44:31;;;;;;;49.23;10.67;;;13.20;99.90;;;;;;6275107;22;20188;-81
2023/03/30 08:47:00;;;;;;;55.60;12.37;;;13.30;99.90;;;;;;6276991;22;20168;-80
2023/03/30 08:49:28;;;;;;;41.17;9.67;;;13.40;99.90;;;;;;6276024;22;20251;-80
2023/03/30 08:51:56;;;;;;;47.40;9.67;;;13.50;99.90;;;;;;6276020;22;20207;-80
2023/03/30 08:54:24;;;;;;;43.63;10.30;;;13.60;99.90;;;;;;6275991;22;20268;-80
2023/03/30 08:57:01;;;;;;;41.97;9.83;;;13.70;99.90;;;;;;6272927;22;20196;-77
2023/03/30 08:59:38;;;;;;;45.10;9.80;;;13.80;99.90;;;;;;6275892;22;20193;-80
2023/03/30 09:02:15;;;;;;;48.50;10.27;;;13.90;99.90;;;;;;6275976;22;20183;-80
2023/03/30 09:04:55;;;;;;;37.53;9.77;;;13.80;99.90;;;;;;6275547;22;20184;-80
2023/03/30 09:07:24;;;;;;;37.77;9.17;;;13.90;99.90;;;;;;6274755;22;20224;-79
2023/03/30 09:09:52;;;;;;;40.63;10.57;;;13.90;99.90;;;;;;6275626;22;20172;-78
2023/03/30 09:12:29;;;;;;;39.03;9.20;;;13.90;99.90;;;;;;6274424;22;20355;-80
2023/03/30 09:14:59;;;;;;;35.90;8.70;;;14.00;99.90;;;;;;6275505;22;20222;-79
2023/03/30 09:17:32;;;;;;;35.90;7.83;;;14.00;99.90;;;;;;6275063;22;20774;-79
2023/03/30 09:20:08;;;;;;;40.73;10.33;;;14.10;99.90;;;;;;6276404;22;20699;-77
2023/03/30 09:22:39;;;;;;;47.13;10.03;;;14.10;99.90;;;;;;6276521;22;20494;-79
2023/03/30 09:25:14;;;;;;;43.17;11.13;;;14.20;99.90;;;;;;6275600;22;20187;-79
2023/03/30 09:27:50;;;;;;;41.07;9.60;;;14.20;99.90;;;;;;6276111;22;20168;-79
2023/03/30 09:30:19;;;;;;;41.93;10.60;;;14.30;99.90;;;;;;6276576;22;20169;-79
2023/03/30 09:32:58;;;;;;;47.33;10.33;;;14.30;99.90;;;;;;6275502;22;20624;-78
2023/03/30 09:35:30;;;;;;;47.07;9.27;;;14.40;99.90;;;;;;6275328;22;20168;-79
2023/03/30 09:37:57;;;;;;;38.93;9.60;;;14.40;99.90;;;;;;6272478;22;20252;-78
2023/03/30 09:40:36;;;;;;;38.83;9.03;;;14.50;99.90;;;;;;6273706;22;20189;-79
2023/03/30 09:43:13;;;;;;;40.77;9.13;;;14.60;99.90;;;;;;6274611;22;20258;-78
2023/03/30 09:45:42;;;;;;;41.47;9.90;;;14.60;99.90;;;;;;6273423;22;20226;-78
2023/03/30 09:48:09;;;;;;;37.80;9.07;;;14.60;99.90;;;;;;6275026;22;20172;-78
2023/03/30 09:50:41;;;;;;;44.90;9.80;;;14.60;99.90;;;;;;6275461;22;20195;-79
2023/03/30 09:53:20;;;;;;;39.87;9.03;;;14.70;99.90;;;;;;6275017;22;20244;-79
2023/03/30 09:55:58;;;;;;;41.30;9.80;;;14.70;99.90;;;;;;6275247;22;20430;-79
2023/03/30 09:58:30;;;;;;;46.53;10.03;;;14.80;99.90;;;;;;6276090;22;20171;-75
2023/03/30 10:01:07;;;;;;;47.17;9.47;;;14.90;99.90;;;;;;6275598;22;20218;-79
2023/03/30 10:03:36;;;;;;;43.43;10.27;;;14.90;99.90;;;;;;6275658;22;20326;-81
2023/03/30 10:06:06;;;;;;;46.95;11.90;;;15.00;99.90;;;;;;6275545;22;20188;-80
2023/03/30 10:08:33;;;;;;;43.35;11.05;;;15.10;99.90;;;;;;6275876;22;20175;-80
2023/03/30 10:11:04;;;;;;;38.30;9.23;;;15.00;99.90;;;;;;6275961;22;20691;-79
2023/03/30 10:13:36;;;;;;;39.95;9.85;;;15.00;99.90;;;;;;6276230;22;20168;-82
2023/03/30 10:16:07;;;;;;;42.10;10.07;;;15.00;99.90;;;;;;6275757;22;20169;-79
2023/03/30 10:18:39;;;;;;;39.63;9.60;;;15.20;99.90;;;;;;6275210;22;20159;-80
2023/03/30 10:21:16;;;;;;;39.00;10.07;;;15.20;99.90;;;;;;6275321;22;20168;-81
2023/03/30 10:23:44;;;;;;;48.25;10.57;;;15.30;99.90;;;;;;6275358;22;20192;-85
2023/03/30 10:26:17;;;;;;;40.28;9.43;;;15.30;99.90;;;;;;6275939;22;20211;-78
2023/03/30 10:28:55;;;;;;;45.55;10.25;;;15.30;99.90;;;;;;6274823;22;20230;-78
2023/03/30 10:31:23;;;;;;;45.20;10.75;;;15.50;99.90;;;;;;6275427;22;20169;-79
2023/03/30 10:33:56;;;;;;;39.80;9.97;;;15.60;99.90;;;;;;6274730;22;20165;-79
2023/03/30 10:36:27;;;;;;;41.47;10.60;;;15.50;99.90;;;;;;6275574;22;20389;-85
2023/03/30 10:38:54;;;;;;;43.50;10.57;;;15.50;99.90;;;;;;6277029;22;20167;-82
2023/03/30 10:41:23;;;;;;;39.22;10.20;;;15.40;99.90;;;;;;6275034;22;20212;-82
2023/03/30 10:43:52;;;;;;;51.90;9.82;;;15.50;99.90;;;;;;6275865;22;20188;-84
2023/03/30 10:46:22;;;;;;;41.97;11.02;;;15.60;99.90;;;;;;6276155;22;20222;-83
2023/03/30 10:49:00;;;;;;;38.45;10.75;;;15.70;99.90;;;;;;6275817;22;20630;-81
2023/03/30 10:51:37;;;;;;;45.13;10.20;;;15.90;99.90;;;;;;6275267;22;20705;-80
2023/03/30 10:54:11;;;;;;;44.22;10.32;;;15.90;99.90;;;;;;6274420;22;20231;-82
2023/03/30 10:56:45;;;;;;;41.17;10.05;;;15.90;99.90;;;;;;6274685;22;20596;-82
2023/03/30 10:59:45;;;;;;;41.65;9.55;;;15.70;99.90;;;;;;6275881;22;20184;-79
2023/03/30 11:02:39;;;;;;;47.80;10.27;;;15.60;99.90;;;;;;6265530;22;20169;-79
2023/03/30 11:05:11;;;;;;;43.40;11.25;;;15.80;99.90;;;;;;6274588;22;20220;-79
2023/03/30 11:07:43;;;;;;;40.72;10.27;;;15.90;99.90;;;;;;6275355;22;20210;-78
2023/03/30 11:10:15;;;;;;;40.08;10.10;;;15.90;99.90;;;;;;6274649;22;20165;-79
2023/03/30 11:12:46;;;;;;;41.53;9.80;;;15.90;99.90;;;;;;6275478;22;20200;-81
2023/03/30 11:15:17;;;;;;;42.53;11.10;;;15.80;99.90;;;;;;6275459;22;20461;-79
2023/03/30 11:17:54;;;;;;;41.92;9.30;;;15.70;99.90;;;;;;6274081;22;20223;-80
2023/03/30 11:20:27;;;;;;;36.15;8.52;;;15.70;99.90;;;;;;6275370;22;20169;-81
2023/03/30 11:23:11;;;;;;;45.08;9.45;;;15.70;99.90;;;;;;6275824;22;20165;-77
2023/03/30 11:25:47;;;;;;;44.15;9.00;;;15.70;99.90;;;;;;6274952;22;20184;-79
2023/03/30 11:28:21;;;;;;;43.03;9.45;;;15.70;99.90;;;;;;6275416;22;20492;-81
2023/03/30 11:30:50;;;;;;;53.60;10.45;;;15.70;99.90;;;;;;6275099;22;20569;-84
2023/03/30 11:33:27;;;;;;;43.97;9.75;;;15.70;99.90;;;;;;6273702;22;20681;-81
2023/03/30 11:35:57;;;;;;;49.45;10.45;;;15.80;99.90;;;;;;6274861;22;20214;-78
2023/03/30 11:38:29;;;;;;;47.80;9.20;;;15.90;99.90;;;;;;6273324;22;20267;-79
2023/03/30 11:41:01;;;;;;;38.85;8.75;;;15.90;99.90;;;;;;6273915;22;20244;-78
2023/03/30 11:43:30;;;;;;;39.22;9.77;;;16.10;99.90;;;;;;6274101;22;20215;-79
2023/03/30 11:46:02;;;;;;;37.53;9.15;;;16.20;99.90;;;;;;6272710;22;20943;-77
2023/03/30 11:48:45;;;;;;;44.05;9.98;;;16.30;99.90;;;;;;6274605;22;20196;-79
2023/03/30 11:51:36;;;;;;;40.88;9.80;;;16.30;99.90;;;;;;6273850;22;20182;-79
2023/03/30 11:54:24;;;;;;;42.25;9.30;;;16.40;99.90;;;;;;6273885;22;20180;-80
2023/03/30 11:56:57;;;;;;;39.10;8.93;;;16.30;99.90;;;;;;6274173;22;20232;-81
2023/03/30 11:59:34;;;;;;;40.05;10.15;;;16.30;99.90;;;;;;6274526;22;20180;-81
2023/03/30 12:02:11;;;;;;;50.13;10.57;;;16.50;99.90;;;;;;6276851;22;20192;-80
2023/03/30 12:04:46;;;;;;;44.15;10.60;;;16.50;99.90;;;;;;6276872;22;20184;-81
2023/03/30 12:07:26;;;;;;;38.75;9.93;;;16.50;99.90;;;;;;6275933;22;20180;-80
2023/03/30 12:09:55;;;;;;;51.35;11.23;;;16.40;99.90;;;;;;6277082;22;20237;-81
2023/03/30 12:12:31;;;;;;;42.53;10.05;;;16.30;99.90;;;;;;6276488;22;20204;-78
2023/03/30 12:15:04;;;;;;;41.10;9.52;;;16.20;99.90;;;;;;6275098;22;20157;-80
2023/03/30 12:17:41;;;;;;;41.92;10.25;;;16.30;99.90;;;;;;6276189;22;20176;-81
2023/03/30 12:20:30;;;;;;;32.95;9.63;;;16.40;99.90;;;;;;6278008;22;20161;-83
2023/03/30 12:23:02;;;;;;;54.85;9.77;;;16.40;99.90;;;;;;6273775;22;20248;-82
2023/03/30 12:25:35;;;;;;;34.10;8.38;;;16.50;99.90;;;;;;6278003;22;20262;-82
2023/03/30 12:28:11;;;;;;;39.22;8.70;;;16.60;99.90;;;;;;6274607;22;20203;-81
2023/03/30 12:30:44;;;;;;;40.35;9.35;;;16.40;99.90;;;;;;6273636;22;20534;-80
2023/03/30 12:33:13;;;;;;;38.83;9.80;;;16.30;99.90;;;;;;6275984;22;20169;-81
2023/03/30 12:35:57;;;;;;;39.10;9.55;;;16.10;99.90;;;;;;6275542;22;20484;-79
2023/03/30 12:38:26;;;;;;;37.28;9.05;;;16.10;99.90;;;;;;6273806;22;20189;-80
2023/03/30 12:41:13;;;;;;;35.95;9.07;;;16.00;99.90;;;;;;6274785;22;20169;-79
2023/03/30 12:43:49;;;;;;;43.72;9.85;;;16.00;99.90;;;;;;6273489;22;20420;-80
2023/03/30 12:46:24;;;;;;;42.83;10.07;;;15.90;99.90;;;;;;6276183;22;20405;-79
2023/03/30 12:48:59;;;;;;;42.35;10.35;;;15.80;99.90;;;;;;6272155;22;20203;-78
2023/03/30 12:51:49;;;;;;;43.13;10.15;;;15.80;99.90;;;;;;6275118;22;20494;-80
2023/03/30 12:54:45;;;;;;;50.30;10.02;;;15.80;99.90;;;;;;6275732;22;20558;-81
2023/03/30 12:57:21;;;;;;;36.70;9.15;;;15.60;99.90;;;;;;6274800;22;20173;-79